sensor_id;sensor_type;location;lat;lon;timestamp;pressure;altitude;pressure_sealevel;temperature;humidity
54262;BME280;40174;52.364;6.452;2023-03-16T00:02:23;101604.50;;;1.42;100.00
54262;BME280;40174;52.364;6.452;2023-03-16T00:04:49;101594.75;;;1.49;100.00
54262;BME280;40174;52.364;6.452;2023-03-16T00:07:16;101591.19;;;1.52;100.00
54262;BME280;40174;52.364;6.452;2023-03-16T00:09:43;101581.56;;;1.54;100.00
54262;BME280;40174;52.364;6.452;2023-03-16T00:12:11;101570.84;;;1.63;100.00
54262;BME280;40174;52.364;6.452;2023-03-16T00:14:41;101584.81;;;1.62;100.00
54262;BME280;40174;52.364;6.452;2023-03-16T00:17:08;101583.81;;;1.66;100.00
54262;BME280;40174;52.364;6.452;2023-03-16T00:19:36;101582.09;;;1.65;100.00
54262;BME280;40174;52.364;6.452;2023-03-16T00:22:02;101581.22;;;1.66;100.00
54262;BME280;40174;52.364;6.452;2023-03-16T00:24:29;101588.91;;;1.69;100.00
54262;BME280;40174;52.364;6.452;2023-03-16T00:26:56;101582.78;;;1.70;100.00
54262;BME280;40174;52.364;6.452;2023-03-16T00:29:22;101586.28;;;1.71;100.00
54262;BME280;40174;52.364;6.452;2023-03-16T00:31:49;101593.06;;;1.75;100.00
54262;BME280;40174;52.364;6.452;2023-03-16T00:34:16;101591.28;;;1.77;100.00
54262;BME280;40174;52.364;6.452;2023-03-16T00:36:44;101583.41;;;1.78;100.00
54262;BME280;40174;52.364;6.452;2023-03-16T00:39:11;101584.22;;;1.80;100.00
54262;BME280;40174;52.364;6.452;2023-03-16T00:41:39;101579.88;;;1.79;100.00
54262;BME280;40174;52.364;6.452;2023-03-16T00:44:06;101586.72;;;1.83;100.00
54262;BME280;40174;52.364;6.452;2023-03-16T00:46:34;101586.53;;;1.90;100.00
54262;BME280;40174;52.364;6.452;2023-03-16T00:49:00;101577.94;;;1.86;100.00
54262;BME280;40174;52.364;6.452;2023-03-16T00:51:28;101571.00;;;1.86;100.00
54262;BME280;40174;52.364;6.452;2023-03-16T00:53:59;101563.97;;;1.89;100.00
54262;BME280;40174;52.364;6.452;2023-03-16T00:56:25;101565.56;;;1.93;100.00
54262;BME280;40174;52.364;6.452;2023-03-16T00:58:52;101555.13;;;1.93;100.00
54262;BME280;40174;52.364;6.452;2023-03-16T01:01:22;101543.72;;;1.97;100.00
54262;BME280;40174;52.364;6.452;2023-03-16T01:03:49;101542.72;;;2.01;100.00
54262;BME280;40174;52.364;6.452;2023-03-16T01:06:16;101534.03;;;2.00;100.00
54262;BME280;40174;52.364;6.452;2023-03-16T01:08:45;101546.97;;;2.03;99.75
54262;BME280;40174;52.364;6.452;2023-03-16T01:11:15;101537.38;;;2.04;100.00
54262;BME280;40174;52.364;6.452;2023-03-16T01:13:43;101537.44;;;2.02;99.78
54262;BME280;40174;52.364;6.452;2023-03-16T01:16:11;101529.56;;;2.04;99.80
54262;BME280;40174;52.364;6.452;2023-03-16T01:18:39;101525.06;;;2.09;99.87
54262;BME280;40174;52.364;6.452;2023-03-16T01:21:07;101524.13;;;2.10;100.00
54262;BME280;40174;52.364;6.452;2023-03-16T01:23:34;101523.19;;;2.13;99.89
54262;BME280;40174;52.364;6.452;2023-03-16T01:26:02;101528.34;;;2.14;100.00
54262;BME280;40174;52.364;6.452;2023-03-16T01:28:31;101525.78;;;2.13;100.00
54262;BME280;40174;52.364;6.452;2023-03-16T01:31:00;101529.19;;;2.15;100.00
54262;BME280;40174;52.364;6.452;2023-03-16T01:33:28;101525.75;;;2.14;99.44
54262;BME280;40174;52.364;6.452;2023-03-16T01:35:58;101527.50;;;2.14;99.83
54262;BME280;40174;52.364;6.452;2023-03-16T01:38:29;101516.97;;;2.17;99.84
54262;BME280;40174;52.364;6.452;2023-03-16T01:40:56;101510.94;;;2.15;99.70
54262;BME280;40174;52.364;6.452;2023-03-16T01:43:25;101507.59;;;2.11;99.73
54262;BME280;40174;52.364;6.452;2023-03-16T01:46:14;101500.59;;;2.13;100.00
54262;BME280;40174;52.364;6.452;2023-03-16T01:48:48;101497.91;;;2.15;99.93
54262;BME280;40174;52.364;6.452;2023-03-16T01:51:22;101492.59;;;2.18;100.00
54262;BME280;40174;52.364;6.452;2023-03-16T01:53:50;101502.97;;;2.19;100.00
54262;BME280;40174;52.364;6.452;2023-03-16T01:56:22;101500.31;;;2.21;100.00
54262;BME280;40174;52.364;6.452;2023-03-16T01:58:51;101500.19;;;2.24;99.89
54262;BME280;40174;52.364;6.452;2023-03-16T02:01:25;101491.56;;;2.22;99.81
54262;BME280;40174;52.364;6.452;2023-03-16T02:04:16;101484.69;;;2.19;100.00
54262;BME280;40174;52.364;6.452;2023-03-16T02:06:46;101489.06;;;2.19;100.00
54262;BME280;40174;52.364;6.452;2023-03-16T02:09:12;101482.91;;;2.21;100.00
54262;BME280;40174;52.364;6.452;2023-03-16T02:11:40;101487.09;;;2.25;100.00
54262;BME280;40174;52.364;6.452;2023-03-16T02:14:11;101474.00;;;2.27;99.88
54262;BME280;40174;52.364;6.452;2023-03-16T02:16:40;101473.06;;;2.29;99.76
54262;BME280;40174;52.364;6.452;2023-03-16T02:19:11;101468.69;;;2.30;99.87
54262;BME280;40174;52.364;6.452;2023-03-16T02:21:47;101470.50;;;2.28;99.93
54262;BME280;40174;52.364;6.452;2023-03-16T02:24:18;101476.47;;;2.32;99.83
54262;BME280;40174;52.364;6.452;2023-03-16T02:26:49;101472.88;;;2.34;99.69
54262;BME280;40174;52.364;6.452;2023-03-16T02:32:04;101455.50;;;2.33;99.50
54262;BME280;40174;52.364;6.452;2023-03-16T02:34:31;101453.69;;;2.35;99.70
54262;BME280;40174;52.364;6.452;2023-03-16T02:36:59;101446.78;;;2.34;99.42
54262;BME280;40174;52.364;6.452;2023-03-16T02:39:27;101446.84;;;2.33;99.66
54262;BME280;40174;52.364;6.452;2023-03-16T02:41:53;101444.13;;;2.36;99.14
54262;BME280;40174;52.364;6.452;2023-03-16T02:44:22;101440.72;;;2.34;99.32
54262;BME280;40174;52.364;6.452;2023-03-16T02:46:53;101439.72;;;2.38;99.31
54262;BME280;40174;52.364;6.452;2023-03-16T02:49:26;101439.81;;;2.35;99.26
54262;BME280;40174;52.364;6.452;2023-03-16T02:51:53;101433.00;;;2.31;99.70
54262;BME280;40174;52.364;6.452;2023-03-16T02:54:22;101422.56;;;2.31;100.00
54262;BME280;40174;52.364;6.452;2023-03-16T02:56:48;101421.56;;;2.35;99.78
54262;BME280;40174;52.364;6.452;2023-03-16T02:59:15;101428.53;;;2.34;100.00
54262;BME280;40174;52.364;6.452;2023-03-16T03:01:41;101424.16;;;2.35;100.00
54262;BME280;40174;52.364;6.452;2023-03-16T03:04:09;101418.91;;;2.36;99.64
54262;BME280;40174;52.364;6.452;2023-03-16T03:06:37;101419.00;;;2.33;99.77
54262;BME280;40174;52.364;6.452;2023-03-16T03:09:05;101425.91;;;2.34;100.00
54262;BME280;40174;52.364;6.452;2023-03-16T03:11:32;101424.97;;;2.37;100.00
54262;BME280;40174;52.364;6.452;2023-03-16T03:13:58;101422.13;;;2.43;99.37
54262;BME280;40174;52.364;6.452;2023-03-16T03:16:27;101416.88;;;2.44;99.47
54262;BME280;40174;52.364;6.452;2023-03-16T03:18:55;101419.47;;;2.44;99.40
54262;BME280;40174;52.364;6.452;2023-03-16T03:21:24;101419.47;;;2.44;99.42
54262;BME280;40174;52.364;6.452;2023-03-16T03:23:52;101408.97;;;2.46;99.28
54262;BME280;40174;52.364;6.452;2023-03-16T03:26:19;101407.19;;;2.46;99.22
54262;BME280;40174;52.364;6.452;2023-03-16T03:28:46;101403.75;;;2.46;99.26
54262;BME280;40174;52.364;6.452;2023-03-16T03:31:14;101399.50;;;2.43;99.96
54262;BME280;40174;52.364;6.452;2023-03-16T03:33:41;101406.34;;;2.46;99.71
54262;BME280;40174;52.364;6.452;2023-03-16T03:36:09;101405.28;;;2.52;99.47
54262;BME280;40174;52.364;6.452;2023-03-16T03:38:37;101399.28;;;2.49;99.11
54262;BME280;40174;52.364;6.452;2023-03-16T03:41:07;101400.06;;;2.52;99.17
54262;BME280;40174;52.364;6.452;2023-03-16T03:43:36;101392.16;;;2.53;98.99
54262;BME280;40174;52.364;6.452;2023-03-16T03:46:04;101390.47;;;2.52;99.02
54262;BME280;40174;52.364;6.452;2023-03-16T03:48:33;101381.06;;;2.48;99.50
54262;BME280;40174;52.364;6.452;2023-03-16T03:51:00;101376.81;;;2.45;99.66
54262;BME280;40174;52.364;6.452;2023-03-16T03:53:29;101381.06;;;2.48;99.86
54262;BME280;40174;52.364;6.452;2023-03-16T03:56:17;101370.84;;;2.42;99.83
54262;BME280;40174;52.364;6.452;2023-03-16T03:58:45;101369.81;;;2.46;100.00
54262;BME280;40174;52.364;6.452;2023-03-16T04:01:17;101371.59;;;2.45;100.00
54262;BME280;40174;52.364;6.452;2023-03-16T04:03:44;101369.81;;;2.46;100.00
54262;BME280;40174;52.364;6.452;2023-03-16T04:06:13;101361.19;;;2.44;100.00
54262;BME280;40174;52.364;6.452;2023-03-16T04:08:40;101364.69;;;2.44;100.00
54262;BME280;40174;52.364;6.452;2023-03-16T04:11:09;101365.53;;;2.45;100.00
54262;BME280;40174;52.364;6.452;2023-03-16T04:13:37;101362.84;;;2.46;100.00
54262;BME280;40174;52.364;6.452;2023-03-16T04:16:04;101368.00;;;2.48;100.00
54262;BME280;40174;52.364;6.452;2023-03-16T04:18:39;101366.16;;;2.52;100.00
54262;BME280;40174;52.364;6.452;2023-03-16T04:21:13;101372.19;;;2.52;100.00
54262;BME280;40174;52.364;6.452;2023-03-16T04:23:40;101379.97;;;2.54;100.00
54262;BME280;40174;52.364;6.452;2023-03-16T04:26:07;101379.06;;;2.55;100.00
54262;BME280;40174;52.364;6.452;2023-03-16T04:28:33;101378.88;;;2.59;100.00
54262;BME280;40174;52.364;6.452;2023-03-16T04:31:03;101365.13;;;2.56;100.00
54262;BME280;40174;52.364;6.452;2023-03-16T04:33:37;101371.22;;;2.55;100.00
54262;BME280;40174;52.364;6.452;2023-03-16T04:36:05;101359.91;;;2.56;100.00
54262;BME280;40174;52.364;6.452;2023-03-16T04:38:35;101370.22;;;2.59;100.00
54262;BME280;40174;52.364;6.452;2023-03-16T04:41:03;101362.50;;;2.56;100.00
54262;BME280;40174;52.364;6.452;2023-03-16T04:43:38;101367.66;;;2.57;100.00
54262;BME280;40174;52.364;6.452;2023-03-16T04:46:17;101358.97;;;2.57;100.00
54262;BME280;40174;52.364;6.452;2023-03-16T04:48:44;101355.44;;;2.58;100.00
54262;BME280;40174;52.364;6.452;2023-03-16T04:51:10;101350.22;;;2.58;100.00
54262;BME280;40174;52.364;6.452;2023-03-16T04:53:42;101343.44;;;2.54;100.00
54262;BME280;40174;52.364;6.452;2023-03-16T04:56:17;101352.13;;;2.54;100.00
54262;BME280;40174;52.364;6.452;2023-03-16T04:58:48;101344.47;;;2.49;100.00
54262;BME280;40174;52.364;6.452;2023-03-16T05:01:18;101344.38;;;2.51;100.00
54262;BME280;40174;52.364;6.452;2023-03-16T05:03:46;101342.53;;;2.55;100.00
54262;BME280;40174;52.364;6.452;2023-03-16T05:06:14;101332.22;;;2.52;100.00
54262;BME280;40174;52.364;6.452;2023-03-16T05:08:41;101332.13;;;2.53;100.00
54262;BME280;40174;52.364;6.452;2023-03-16T05:11:08;101339.31;;;2.48;100.00
54262;BME280;40174;52.364;6.452;2023-03-16T05:13:45;101332.03;;;2.56;100.00
54262;BME280;40174;52.364;6.452;2023-03-16T05:16:11;101325.19;;;2.54;100.00
54262;BME280;40174;52.364;6.452;2023-03-16T05:18:41;101330.44;;;2.52;100.00
54262;BME280;40174;52.364;6.452;2023-03-16T05:21:08;101328.03;;;2.47;100.00
54262;BME280;40174;52.364;6.452;2023-03-16T05:23:48;101327.59;;;2.58;100.00
54262;BME280;40174;52.364;6.452;2023-03-16T05:26:17;101327.72;;;2.55;100.00
54262;BME280;40174;52.364;6.452;2023-03-16T05:28:44;101338.34;;;2.50;100.00
54262;BME280;40174;52.364;6.452;2023-03-16T05:31:14;101325.28;;;2.50;100.00
54262;BME280;40174;52.364;6.452;2023-03-16T05:33:47;101330.41;;;2.54;100.00
54262;BME280;40174;52.364;6.452;2023-03-16T05:36:17;101333.09;;;2.50;100.00
54262;BME280;40174;52.364;6.452;2023-03-16T05:38:47;101328.88;;;2.48;100.00
54262;BME280;40174;52.364;6.452;2023-03-16T05:41:34;101325.53;;;2.44;100.00
54262;BME280;40174;52.364;6.452;2023-03-16T05:44:23;101329.47;;;2.55;100.00
54262;BME280;40174;52.364;6.452;2023-03-16T05:47:00;101325.41;;;2.47;100.00
54262;BME280;40174;52.364;6.452;2023-03-16T05:49:30;101318.59;;;2.43;100.00
54262;BME280;40174;52.364;6.452;2023-03-16T05:52:00;101319.44;;;2.44;100.00
54262;BME280;40174;52.364;6.452;2023-03-16T05:54:30;101327.19;;;2.47;100.00
54262;BME280;40174;52.364;6.452;2023-03-16T05:56:57;101332.44;;;2.45;100.00
54262;BME280;40174;52.364;6.452;2023-03-16T05:59:25;101341.03;;;2.49;100.00
54262;BME280;40174;52.364;6.452;2023-03-16T06:01:55;101347.97;;;2.48;100.00
54262;BME280;40174;52.364;6.452;2023-03-16T06:04:21;101349.50;;;2.54;100.00
54262;BME280;40174;52.364;6.452;2023-03-16T06:06:49;101350.47;;;2.52;100.00
54262;BME280;40174;52.364;6.452;2023-03-16T06:09:22;101353.09;;;2.52;100.00
54262;BME280;40174;52.364;6.452;2023-03-16T06:11:49;101339.13;;;2.53;100.00
54262;BME280;40174;52.364;6.452;2023-03-16T06:14:17;101335.63;;;2.54;100.00
54262;BME280;40174;52.364;6.452;2023-03-16T06:16:44;101333.06;;;2.52;100.00
54262;BME280;40174;52.364;6.452;2023-03-16T06:19:12;101330.31;;;2.55;100.00
54262;BME280;40174;52.364;6.452;2023-03-16T06:21:39;101321.66;;;2.55;100.00
54262;BME280;40174;52.364;6.452;2023-03-16T06:24:10;101315.53;;;2.56;100.00
54262;BME280;40174;52.364;6.452;2023-03-16T06:26:36;101313.81;;;2.55;100.00
54262;BME280;40174;52.364;6.452;2023-03-16T06:29:06;101301.63;;;2.55;100.00
54262;BME280;40174;52.364;6.452;2023-03-16T06:31:35;101298.78;;;2.61;100.00
54262;BME280;40174;52.364;6.452;2023-03-16T06:34:02;101306.59;;;2.61;100.00
54262;BME280;40174;52.364;6.452;2023-03-16T06:36:29;101305.56;;;2.65;100.00
54262;BME280;40174;52.364;6.452;2023-03-16T06:38:59;101304.72;;;2.65;100.00
54262;BME280;40174;52.364;6.452;2023-03-16T06:41:38;101316.06;;;2.64;100.00
54262;BME280;40174;52.364;6.452;2023-03-16T06:44:07;101314.84;;;2.73;100.00
54262;BME280;40174;52.364;6.452;2023-03-16T06:46:38;101317.59;;;2.69;100.00
54262;BME280;40174;52.364;6.452;2023-03-16T06:49:06;101320.25;;;2.68;100.00
54262;BME280;40174;52.364;6.452;2023-03-16T06:51:33;101315.03;;;2.68;100.00
54262;BME280;40174;52.364;6.452;2023-03-16T06:53:59;101321.00;;;2.72;100.00
54262;BME280;40174;52.364;6.452;2023-03-16T06:56:27;101326.09;;;2.75;100.00
54262;BME280;40174;52.364;6.452;2023-03-16T06:58:57;101324.28;;;2.77;100.00
54262;BME280;40174;52.364;6.452;2023-03-16T07:01:24;101323.91;;;2.86;100.00
54262;BME280;40174;52.364;6.452;2023-03-16T07:03:51;101330.03;;;2.85;100.00
54262;BME280;40174;52.364;6.452;2023-03-16T07:06:23;101319.66;;;2.83;100.00
54262;BME280;40174;52.364;6.452;2023-03-16T07:08:50;101320.44;;;2.85;100.00
54262;BME280;40174;52.364;6.452;2023-03-16T07:11:18;101315.69;;;2.95;100.00
54262;BME280;40174;52.364;6.452;2023-03-16T07:13:45;101324.44;;;2.94;100.00
54262;BME280;40174;52.364;6.452;2023-03-16T07:16:15;101314.78;;;2.96;100.00
54262;BME280;40174;52.364;6.452;2023-03-16T07:18:42;101320.91;;;2.95;100.00
54262;BME280;40174;52.364;6.452;2023-03-16T07:21:11;101323.28;;;3.01;100.00
54262;BME280;40174;52.364;6.452;2023-03-16T07:23:38;101322.50;;;2.99;100.00
54262;BME280;40174;52.364;6.452;2023-03-16T07:26:07;101312.84;;;3.01;100.00
54262;BME280;40174;52.364;6.452;2023-03-16T07:28:37;101320.66;;;3.01;100.00
54262;BME280;40174;52.364;6.452;2023-03-16T07:31:06;101324.91;;;3.04;100.00
54262;BME280;40174;52.364;6.452;2023-03-16T07:33:38;101325.38;;;3.13;100.00
54262;BME280;40174;52.364;6.452;2023-03-16T07:36:08;101322.84;;;3.12;100.00
54262;BME280;40174;52.364;6.452;2023-03-16T07:38:38;101334.00;;;3.16;100.00
54262;BME280;40174;52.364;6.452;2023-03-16T07:41:06;101325.28;;;3.17;100.00
54262;BME280;40174;52.364;6.452;2023-03-16T07:43:34;101327.56;;;3.24;100.00
54262;BME280;40174;52.364;6.452;2023-03-16T07:46:00;101334.34;;;3.28;100.00
54262;BME280;40174;52.364;6.452;2023-03-16T07:48:28;101335.09;;;3.32;100.00
54262;BME280;40174;52.364;6.452;2023-03-16T07:51:00;101333.38;;;3.31;100.00
54262;BME280;40174;52.364;6.452;2023-03-16T07:53:28;101323.66;;;3.35;100.00
54262;BME280;40174;52.364;6.452;2023-03-16T07:56:24;101322.53;;;3.40;100.00
54262;BME280;40174;52.364;6.452;2023-03-16T07:58:54;101331.28;;;3.39;100.00
54262;BME280;40174;52.364;6.452;2023-03-16T08:01:22;101332.13;;;3.40;100.00
54262;BME280;40174;52.364;6.452;2023-03-16T08:03:48;101332.94;;;3.42;100.00
54262;BME280;40174;52.364;6.452;2023-03-16T08:06:17;101336.53;;;3.39;100.00
54262;BME280;40174;52.364;6.452;2023-03-16T08:08:44;101325.72;;;3.47;100.00
54262;BME280;40174;52.364;6.452;2023-03-16T08:11:19;101332.53;;;3.51;100.00
54262;BME280;40174;52.364;6.452;2023-03-16T08:13:53;101337.56;;;3.56;100.00
54262;BME280;40174;52.364;6.452;2023-03-16T08:16:23;101325.31;;;3.56;100.00
54262;BME280;40174;52.364;6.452;2023-03-16T08:18:50;101332.28;;;3.57;100.00
54262;BME280;40174;52.364;6.452;2023-03-16T08:21:19;101338.94;;;3.64;100.00
54262;BME280;40174;52.364;6.452;2023-03-16T08:23:46;101335.28;;;3.68;100.00
54262;BME280;40174;52.364;6.452;2023-03-16T08:26:16;101333.25;;;3.75;100.00
54262;BME280;40174;52.364;6.452;2023-03-16T08:28:44;101333.50;;;3.69;100.00
54262;BME280;40174;52.364;6.452;2023-03-16T08:31:12;101332.56;;;3.70;100.00
54262;BME280;40174;52.364;6.452;2023-03-16T08:34:03;101328.06;;;3.73;100.00
54262;BME280;40174;52.364;6.452;2023-03-16T08:36:36;101333.88;;;3.80;100.00
54262;BME280;40174;52.364;6.452;2023-03-16T08:39:03;101327.88;;;3.78;100.00
54262;BME280;40174;52.364;6.452;2023-03-16T08:41:30;101336.16;;;3.88;100.00
54262;BME280;40174;52.364;6.452;2023-03-16T08:44:01;101328.28;;;3.88;100.00
54262;BME280;40174;52.364;6.452;2023-03-16T08:46:28;101335.19;;;3.90;100.00
54262;BME280;40174;52.364;6.452;2023-03-16T08:48:57;101329.66;;;3.96;100.00
54262;BME280;40174;52.364;6.452;2023-03-16T08:51:25;101333.94;;;3.99;100.00
54262;BME280;40174;52.364;6.452;2023-03-16T08:53:55;101327.72;;;4.02;100.00
54262;BME280;40174;52.364;6.452;2023-03-16T08:56:21;101326.19;;;3.96;100.00
54262;BME280;40174;52.364;6.452;2023-03-16T08:58:48;101320.84;;;3.99;100.00
54262;BME280;40174;52.364;6.452;2023-03-16T09:01:16;101317.16;;;4.03;100.00
54262;BME280;40174;52.364;6.452;2023-03-16T09:03:44;101318.03;;;4.04;100.00
54262;BME280;40174;52.364;6.452;2023-03-16T09:06:12;101327.50;;;4.06;100.00
54262;BME280;40174;52.364;6.452;2023-03-16T09:08:40;101316.88;;;4.09;100.00
54262;BME280;40174;52.364;6.452;2023-03-16T09:11:11;101334.16;;;4.13;100.00
54262;BME280;40174;52.364;6.452;2023-03-16T09:13:38;101329.13;;;4.09;100.00
54262;BME280;40174;52.364;6.452;2023-03-16T09:16:06;101330.69;;;4.13;100.00
54262;BME280;40174;52.364;6.452;2023-03-16T09:18:34;101333.88;;;4.20;100.00
54262;BME280;40174;52.364;6.452;2023-03-16T09:21:02;101322.47;;;4.21;100.00
54262;BME280;40174;52.364;6.452;2023-03-16T09:23:30;101322.19;;;4.27;100.00
54262;BME280;40174;52.364;6.452;2023-03-16T09:25:59;101314.19;;;4.30;100.00
54262;BME280;40174;52.364;6.452;2023-03-16T09:28:28;101319.31;;;4.33;100.00
54262;BME280;40174;52.364;6.452;2023-03-16T09:30:55;101313.94;;;4.36;100.00
54262;BME280;40174;52.364;6.452;2023-03-16T09:33:23;101312.94;;;4.38;100.00
54262;BME280;40174;52.364;6.452;2023-03-16T09:35:50;101321.91;;;4.52;100.00
54262;BME280;40174;52.364;6.452;2023-03-16T09:38:17;101309.59;;;4.54;100.00
54262;BME280;40174;52.364;6.452;2023-03-16T09:40:45;101305.81;;;4.59;100.00
54262;BME280;40174;52.364;6.452;2023-03-16T09:43:23;101315.31;;;4.62;100.00
54262;BME280;40174;52.364;6.452;2023-03-16T09:46:02;101304.63;;;4.67;100.00
54262;BME280;40174;52.364;6.452;2023-03-16T09:48:33;101296.31;;;4.76;100.00
54262;BME280;40174;52.364;6.452;2023-03-16T09:51:04;101304.72;;;4.83;100.00
54262;BME280;40174;52.364;6.452;2023-03-16T09:53:33;101294.66;;;4.92;100.00
54262;BME280;40174;52.364;6.452;2023-03-16T09:56:04;101285.94;;;4.92;100.00
54262;BME280;40174;52.364;6.452;2023-03-16T09:58:33;101278.63;;;4.98;100.00
54262;BME280;40174;52.364;6.452;2023-03-16T10:01:08;101266.22;;;5.02;100.00
54262;BME280;40174;52.364;6.452;2023-03-16T10:03:57;101259.81;;;5.08;100.00
54262;BME280;40174;52.364;6.452;2023-03-16T10:06:26;101263.75;;;5.16;100.00
54262;BME280;40174;52.364;6.452;2023-03-16T10:08:57;101265.06;;;5.25;100.00
54262;BME280;40174;52.364;6.452;2023-03-16T10:11:30;101265.75;;;5.29;100.00
54262;BME280;40174;52.364;6.452;2023-03-16T10:14:01;101259.50;;;5.31;100.00
54262;BME280;40174;52.364;6.452;2023-03-16T10:16:33;101260.13;;;5.36;100.00
54262;BME280;40174;52.364;6.452;2023-03-16T10:19:09;101256.06;;;5.47;100.00
54262;BME280;40174;52.364;6.452;2023-03-16T10:21:39;101261.00;;;5.53;100.00
54262;BME280;40174;52.364;6.452;2023-03-16T10:24:12;101252.97;;;5.56;100.00
54262;BME280;40174;52.364;6.452;2023-03-16T10:26:43;101255.47;;;5.59;100.00
54262;BME280;40174;52.364;6.452;2023-03-16T10:29:14;101257.75;;;5.65;100.00
54262;BME280;40174;52.364;6.452;2023-03-16T10:31:42;101260.97;;;5.70;100.00
54262;BME280;40174;52.364;6.452;2023-03-16T10:34:08;101252.63;;;5.79;100.00
54262;BME280;40174;52.364;6.452;2023-03-16T10:36:38;101245.75;;;5.77;100.00
54262;BME280;40174;52.364;6.452;2023-03-16T10:39:07;101244.75;;;5.79;100.00
54262;BME280;40174;52.364;6.452;2023-03-16T10:41:36;101245.44;;;5.83;100.00
54262;BME280;40174;52.364;6.452;2023-03-16T10:44:09;101251.41;;;5.85;100.00
54262;BME280;40174;52.364;6.452;2023-03-16T10:46:38;101241.81;;;5.86;100.00
54262;BME280;40174;52.364;6.452;2023-03-16T10:49:19;101252.81;;;5.92;100.00
54262;BME280;40174;52.364;6.452;2023-03-16T10:51:46;101243.00;;;5.96;100.00
54262;BME280;40174;52.364;6.452;2023-03-16T10:54:15;101250.63;;;6.00;100.00
54262;BME280;40174;52.364;6.452;2023-03-16T10:56:44;101254.97;;;6.01;100.00
54262;BME280;40174;52.364;6.452;2023-03-16T10:59:19;101246.91;;;6.04;100.00
54262;BME280;40174;52.364;6.452;2023-03-16T11:01:52;101247.69;;;6.07;100.00
54262;BME280;40174;52.364;6.452;2023-03-16T11:04:20;101235.16;;;6.12;100.00
54262;BME280;40174;52.364;6.452;2023-03-16T11:06:50;101237.69;;;6.13;100.00
54262;BME280;40174;52.364;6.452;2023-03-16T11:09:20;101236.41;;;6.20;100.00
54262;BME280;40174;52.364;6.452;2023-03-16T11:11:48;101229.38;;;6.21;100.00
54262;BME280;40174;52.364;6.452;2023-03-16T11:14:20;101231.59;;;6.29;100.00
54262;BME280;40174;52.364;6.452;2023-03-16T11:16:50;101232.94;;;6.36;100.00
54262;BME280;40174;52.364;6.452;2023-03-16T11:19:23;101228.19;;;6.42;100.00
54262;BME280;40174;52.364;6.452;2023-03-16T11:21:55;101223.78;;;6.43;100.00
54262;BME280;40174;52.364;6.452;2023-03-16T11:24:29;101228.78;;;6.48;100.00
54262;BME280;40174;52.364;6.452;2023-03-16T11:27:01;101216.31;;;6.51;100.00
54262;BME280;40174;52.364;6.452;2023-03-16T11:29:40;101210.72;;;6.57;100.00
54262;BME280;40174;52.364;6.452;2023-03-16T11:32:15;101220.25;;;6.74;100.00
54262;BME280;40174;52.364;6.452;2023-03-16T11:34:46;101213.88;;;6.78;100.00
54262;BME280;40174;52.364;6.452;2023-03-16T11:37:22;101203.94;;;6.83;100.00
54262;BME280;40174;52.364;6.452;2023-03-16T11:39:59;101205.38;;;6.89;100.00
54262;BME280;40174;52.364;6.452;2023-03-16T11:42:37;101199.78;;;6.95;100.00
54262;BME280;40174;52.364;6.452;2023-03-16T11:45:16;101199.97;;;7.06;100.00
54262;BME280;40174;52.364;6.452;2023-03-16T11:48:02;101190.31;;;7.21;100.00
54262;BME280;40174;52.364;6.452;2023-03-16T11:50:36;101190.22;;;7.37;100.00
54262;BME280;40174;52.364;6.452;2023-03-16T11:53:14;101185.81;;;7.52;100.00
54262;BME280;40174;52.364;6.452;2023-03-16T11:55:50;101186.38;;;7.72;100.00
54262;BME280;40174;52.364;6.452;2023-03-16T11:58:31;101184.00;;;7.81;100.00
54262;BME280;40174;52.364;6.452;2023-03-16T12:01:07;101180.97;;;7.87;99.73
54262;BME280;40174;52.364;6.452;2023-03-16T12:06:49;101167.63;;;7.90;95.62
54262;BME280;40174;52.364;6.452;2023-03-16T12:12:22;101147.53;;;7.89;92.97
54262;BME280;40174;52.364;6.452;2023-03-16T12:14:56;101147.84;;;7.98;94.30
54262;BME280;40174;52.364;6.452;2023-03-16T12:17:27;101144.28;;;7.99;92.38
54262;BME280;40174;52.364;6.452;2023-03-16T12:19:57;101137.44;;;7.96;91.94
54262;BME280;40174;52.364;6.452;2023-03-16T12:22:32;101126.78;;;7.98;92.18
54262;BME280;40174;52.364;6.452;2023-03-16T12:25:02;101136.41;;;7.99;90.72
54262;BME280;40174;52.364;6.452;2023-03-16T12:27:32;101135.44;;;8.00;91.30
54262;BME280;40174;52.364;6.452;2023-03-16T12:30:13;101135.44;;;8.00;90.98
54262;BME280;40174;52.364;6.452;2023-03-16T12:32:52;101131.88;;;8.01;89.10
54262;BME280;40174;52.364;6.452;2023-03-16T12:35:32;101131.22;;;7.97;90.33
54262;BME280;40174;52.364;6.452;2023-03-16T12:41:03;101122.19;;;8.01;89.61
54262;BME280;40174;52.364;6.452;2023-03-16T12:43:41;101120.09;;;8.06;89.51
54262;BME280;40174;52.364;6.452;2023-03-16T12:46:13;101116.31;;;8.10;88.96
54262;BME280;40174;52.364;6.452;2023-03-16T12:48:45;101117.06;;;8.12;88.90
54262;BME280;40174;52.364;6.452;2023-03-16T12:51:13;101115.94;;;8.17;89.58
54262;BME280;40174;52.364;6.452;2023-03-16T12:53:43;101104.34;;;8.19;88.35
54262;BME280;40174;52.364;6.452;2023-03-16T12:56:12;101093.41;;;8.25;88.90
54262;BME280;40174;52.364;6.452;2023-03-16T12:58:46;101089.22;;;8.36;88.14
54262;BME280;40174;52.364;6.452;2023-03-16T13:01:15;101093.06;;;8.44;87.28
54262;BME280;40174;52.364;6.452;2023-03-16T13:03:43;101082.84;;;8.65;88.03
54262;BME280;40174;52.364;6.452;2023-03-16T13:06:18;101077.81;;;8.88;85.73
54262;BME280;40174;52.364;6.452;2023-03-16T13:08:50;101081.56;;;9.09;86.61
54262;BME280;40174;52.364;6.452;2023-03-16T13:11:18;101086.50;;;9.27;84.26
54262;BME280;40174;52.364;6.452;2023-03-16T13:13:49;101081.13;;;9.28;82.22
54262;BME280;40174;52.364;6.452;2023-03-16T13:16:25;101093.63;;;9.50;82.53
54262;BME280;40174;52.364;6.452;2023-03-16T13:18:52;101086.91;;;9.70;81.99
54262;BME280;40174;52.364;6.452;2023-03-16T13:21:20;101075.88;;;9.89;80.14